createdAt,value
2023-04-19T00:00:23.946Z,78.77
2023-04-19T00:05:26.196Z,78.77
2023-04-19T00:10:28.441Z,78.96
2023-04-19T00:15:29.951Z,78.92
2023-04-19T00:20:31.408Z,79.06
2023-04-19T00:25:34.595Z,78.97
2023-04-19T00:30:36.297Z,78.85
2023-04-19T00:35:37.802Z,78.93
2023-04-19T00:40:39.300Z,79.31
2023-04-19T00:45:40.748Z,78.83
2023-04-19T00:50:44.313Z,78.84
2023-04-19T00:55:45.857Z,78.95
2023-04-19T01:00:47.332Z,78.85
2023-04-19T01:05:49.922Z,77.88
2023-04-19T01:10:51.391Z,76.32
2023-04-19T01:15:52.886Z,76.30
2023-04-19T01:20:54.473Z,76.43
2023-04-19T01:25:56.150Z,76.64
2023-04-19T01:30:57.673Z,76.27
2023-04-19T01:35:59.119Z,76.45
2023-04-19T01:41:00.576Z,74.42
2023-04-19T01:46:02.014Z,74.51
2023-04-19T01:51:03.588Z,74.66
2023-04-19T01:56:05.393Z,73.23
2023-04-19T02:01:06.841Z,72.09
2023-04-19T02:06:14.402Z,68.22
2023-04-19T02:11:15.884Z,67.19
2023-04-19T02:16:17.323Z,67.10
2023-04-19T02:21:18.857Z,67.25
2023-04-19T02:26:20.644Z,66.50
2023-04-19T02:31:22.157Z,67.63
2023-04-19T02:36:23.750Z,64.06
2023-04-19T02:41:25.249Z,64.88
2023-04-19T02:46:26.771Z,60.33
2023-04-19T02:51:28.299Z,62.84
2023-04-19T02:56:29.710Z,62.91
2023-04-19T03:01:32.351Z,62.51
2023-04-19T03:06:33.848Z,63.44
2023-04-19T03:11:35.778Z,62.99
2023-04-19T03:16:38.467Z,62.06
2023-04-19T03:21:39.920Z,62.08
2023-04-19T03:26:41.347Z,62.18
2023-04-19T03:31:42.916Z,61.04
2023-04-19T03:36:44.512Z,61.50
2023-04-19T03:41:45.969Z,61.63
2023-04-19T03:46:48.772Z,61.18
2023-04-19T03:51:50.485Z,61.68
2023-04-19T03:56:51.894Z,62.55
2023-04-19T04:01:53.367Z,62.50
2023-04-19T04:06:54.801Z,61.48
2023-04-19T04:11:56.222Z,61.38
2023-04-19T04:16:57.644Z,61.15
2023-04-19T04:21:59.040Z,62.02
2023-04-19T04:27:00.848Z,65.99
2023-04-19T04:32:03.222Z,69.75
2023-04-19T04:37:04.864Z,70.59
2023-04-19T04:42:08.663Z,73.30
2023-04-19T04:47:12.826Z,73.43
2023-04-19T04:52:14.252Z,73.67
2023-04-19T04:57:15.915Z,74.37
2023-04-19T05:02:17.409Z,74.61
2023-04-19T05:07:19.017Z,75.61
2023-04-19T05:12:20.523Z,75.39
2023-04-19T05:17:21.994Z,76.56
2023-04-19T05:22:23.514Z,73.56
2023-04-19T05:27:24.978Z,73.57
2023-04-19T05:32:27.506Z,72.22
2023-04-19T05:37:30.479Z,71.41
2023-04-19T05:42:32.074Z,71.89
2023-04-19T05:47:33.751Z,71.01
2023-04-19T05:52:35.334Z,69.57
2023-04-19T05:57:36.780Z,69.24
2023-04-19T06:02:40.748Z,68.58
2023-04-19T06:07:47.246Z,70.04
2023-04-19T06:12:55.795Z,69.54
2023-04-19T06:17:59.350Z,69.30
2023-04-19T06:23:01.369Z,69.61
2023-04-19T06:28:03.058Z,69.89
2023-04-19T06:33:04.609Z,68.98
2023-04-19T06:38:06.307Z,67.43
2023-04-19T06:43:07.762Z,67.59
2023-04-19T06:48:09.304Z,67.63
2023-04-19T06:53:10.876Z,67.72
2023-04-19T06:58:12.456Z,66.05
2023-04-19T07:03:13.941Z,67.61
2023-04-19T07:08:16.104Z,67.51
2023-04-19T07:13:17.589Z,67.38
2023-04-19T07:18:19.390Z,66.97
2023-04-19T07:23:20.810Z,66.30
2023-04-19T07:28:22.294Z,66.22
2023-04-19T07:33:27.861Z,66.83
2023-04-19T07:38:29.684Z,63.81
2023-04-19T07:43:31.111Z,64.34
2023-04-19T07:48:32.546Z,63.83
2023-04-19T07:53:33.964Z,63.98
2023-04-19T07:58:36.469Z,63.35
2023-04-19T08:03:38.241Z,63.19
2023-04-19T08:08:39.926Z,62.32
2023-04-19T08:13:42.158Z,62.47
2023-04-19T08:18:51.525Z,62.08
2023-04-19T08:23:55.655Z,61.47
2023-04-19T08:28:57.089Z,62.85
2023-04-19T08:34:00.202Z,62.20
2023-04-19T08:39:06.729Z,61.00
2023-04-19T08:44:12.366Z,61.90
2023-04-19T08:49:15.241Z,62.09
2023-04-19T08:54:18.279Z,63.55
2023-04-19T08:59:20.124Z,64.10
2023-04-19T09:04:36.563Z,63.96
2023-04-19T09:09:55.652Z,65.28
2023-04-19T09:15:04.366Z,64.68
2023-04-19T09:20:07.188Z,63.81
2023-04-19T09:30:24.201Z,62.70
2023-04-19T09:35:48.211Z,64.74
2023-04-19T09:40:50.386Z,64.70
2023-04-19T09:45:52.529Z,64.65
2023-04-19T09:51:00.799Z,65.17
2023-04-19T09:56:06.287Z,65.16
2023-04-19T10:01:15.559Z,65.88
2023-04-19T10:11:27.387Z,65.86
2023-04-19T10:16:30.654Z,66.44
2023-04-19T10:21:33.297Z,66.68
2023-04-19T10:27:03.140Z,67.27
2023-04-19T10:32:06.192Z,67.00
2023-04-19T10:37:11.248Z,67.32
2023-04-19T10:42:13.131Z,66.83
2023-04-19T10:47:44.621Z,65.83
2023-04-19T10:52:46.212Z,66.53
2023-04-19T10:58:06.569Z,66.73
2023-04-19T11:03:45.282Z,66.24
2023-04-19T11:08:47.268Z,66.81
2023-04-19T11:13:48.800Z,66.53
2023-04-19T11:18:50.237Z,68.24
2023-04-19T11:24:10.491Z,68.31
2023-04-19T11:29:12.861Z,69.15
2023-04-19T11:34:14.717Z,68.87
2023-04-19T11:39:16.504Z,70.22
2023-04-19T11:44:22.320Z,70.20
2023-04-19T11:49:28.908Z,71.46
2023-04-19T11:54:30.597Z,71.54
2023-04-19T11:59:34.855Z,72.58
2023-04-19T12:04:37.722Z,72.43
2023-04-19T12:09:39.428Z,73.53
2023-04-19T12:14:52.250Z,73.41
2023-04-19T12:19:53.703Z,74.96
2023-04-19T12:24:55.989Z,73.71
2023-04-19T12:29:57.422Z,73.76
2023-04-19T12:34:58.850Z,73.53
2023-04-19T12:40:00.372Z,74.36
2023-04-19T12:45:01.805Z,74.91
2023-04-19T12:50:03.814Z,75.23
2023-04-19T12:55:05.921Z,75.51
2023-04-19T13:00:10.603Z,75.33
2023-04-19T13:05:12.979Z,74.64
2023-04-19T13:10:14.450Z,74.06
2023-04-19T13:15:15.908Z,73.84
2023-04-19T13:20:20.221Z,74.36
2023-04-19T13:25:22.223Z,74.91
2023-04-19T13:30:23.686Z,74.78
2023-04-19T13:35:25.196Z,74.74
2023-04-19T13:40:26.893Z,74.01
2023-04-19T13:45:28.303Z,74.43
2023-04-19T13:50:30.082Z,74.40
2023-04-19T13:55:31.612Z,74.20
2023-04-19T14:00:33.925Z,74.33
2023-04-19T14:05:35.913Z,73.86
2023-04-19T14:10:38.039Z,73.68
2023-04-19T14:15:40.911Z,73.42
2023-04-19T14:20:42.361Z,73.58
2023-04-19T14:25:43.778Z,72.31
2023-04-19T14:30:45.225Z,72.28
2023-04-19T14:35:46.733Z,72.05
2023-04-19T14:40:48.398Z,72.02
2023-04-19T14:45:50.027Z,72.58
2023-04-19T14:50:51.835Z,71.78
2023-04-19T14:55:53.259Z,71.71
2023-04-19T15:00:54.875Z,71.21
2023-04-19T15:05:56.336Z,71.41
2023-04-19T15:10:57.751Z,71.32
2023-04-19T15:16:01.842Z,71.05
2023-04-19T15:21:05.153Z,70.05
2023-04-19T15:26:06.712Z,70.03
2023-04-19T15:31:08.900Z,69.64
2023-04-19T15:36:10.370Z,69.71
2023-04-19T15:41:11.828Z,70.02
2023-04-19T15:46:14.073Z,69.68
2023-04-19T15:51:16.104Z,69.43
2023-04-19T15:56:17.562Z,68.44
2023-04-19T16:01:19.421Z,69.21
2023-04-19T16:06:21.797Z,68.72
2023-04-19T16:11:23.371Z,68.74
2023-04-19T16:16:27.013Z,68.18
2023-04-19T16:21:28.783Z,68.04
2023-04-19T16:26:30.292Z,67.78
2023-04-19T16:31:31.996Z,68.36
2023-04-19T16:36:33.451Z,67.99
2023-04-19T16:41:34.875Z,67.62
2023-04-19T16:46:36.522Z,68.36
2023-04-19T16:51:38.273Z,68.46
2023-04-19T16:56:39.756Z,68.67
2023-04-19T17:01:41.280Z,69.01
2023-04-19T17:06:42.722Z,69.27
2023-04-19T17:11:44.267Z,69.49
2023-04-19T17:16:46.029Z,68.72
2023-04-19T17:21:47.461Z,68.65
2023-04-19T17:26:49.820Z,69.02
2023-04-19T17:31:51.362Z,67.82
2023-04-19T17:36:52.847Z,68.21
2023-04-19T17:41:54.919Z,68.46
2023-04-19T17:46:57.208Z,68.76
2023-04-19T17:51:58.835Z,68.93
2023-04-19T17:57:02.516Z,69.42
2023-04-19T18:02:04.169Z,69.07
2023-04-19T18:07:06.087Z,68.80
2023-04-19T18:12:07.688Z,68.40
2023-04-19T18:17:09.152Z,68.17
2023-04-19T18:22:10.579Z,68.09
2023-04-19T18:27:12.696Z,68.64
2023-04-19T18:32:14.295Z,68.74
2023-04-19T18:37:16.934Z,68.18
2023-04-19T18:42:18.373Z,67.63
2023-04-19T18:47:20.170Z,68.03
2023-04-19T18:52:21.622Z,67.96
2023-04-19T18:57:24.356Z,67.75
2023-04-19T19:02:29.029Z,67.95
2023-04-19T19:12:36.062Z,68.28
2023-04-19T19:17:38.125Z,67.49
2023-04-19T19:22:40.275Z,67.56
2023-04-19T19:27:50.135Z,68.08
2023-04-19T19:32:59.941Z,68.31
2023-04-19T19:38:01.488Z,68.64
2023-04-19T19:43:02.977Z,69.11
2023-04-19T19:48:05.069Z,69.50
2023-04-19T19:53:06.547Z,69.53
2023-04-19T20:03:12.743Z,69.25
2023-04-19T20:08:14.684Z,69.58
2023-04-19T20:13:17.040Z,69.76
2023-04-19T20:18:18.562Z,69.71
2023-04-19T20:23:21.594Z,69.94
2023-04-19T20:28:23.119Z,70.49
2023-04-19T20:33:24.559Z,70.27
2023-04-19T20:38:29.101Z,69.79
2023-04-19T20:43:30.577Z,70.09
2023-04-19T20:48:32.237Z,70.67
2023-04-19T20:53:34.146Z,71.37
2023-04-19T20:58:37.837Z,70.87
2023-04-19T21:03:39.469Z,71.01
2023-04-19T21:08:41.044Z,71.33
2023-04-19T21:13:42.608Z,71.34
2023-04-19T21:18:44.044Z,70.67
2023-04-19T21:23:45.475Z,70.96
2023-04-19T21:28:47.023Z,71.30
2023-04-19T21:33:48.472Z,71.40
2023-04-19T21:38:49.941Z,71.11
2023-04-19T21:43:51.403Z,71.06
2023-04-19T21:48:55.554Z,70.88
2023-04-19T21:53:57.369Z,70.75
2023-04-19T21:58:58.834Z,70.79
2023-04-19T22:04:01.863Z,70.13
2023-04-19T22:09:05.636Z,69.90
2023-04-19T22:14:07.781Z,70.60
2023-04-19T22:19:10.065Z,70.70
2023-04-19T22:24:11.514Z,70.38
2023-04-19T22:29:12.955Z,70.62
2023-04-19T22:34:14.406Z,70.88
2023-04-19T22:39:16.096Z,70.97
2023-04-19T22:44:17.794Z,71.28
2023-04-19T22:49:22.085Z,71.65
2023-04-19T22:54:23.514Z,71.93
2023-04-19T22:59:25.076Z,71.78
2023-04-19T23:04:26.951Z,71.75
2023-04-19T23:09:29.729Z,71.82
2023-04-19T23:14:31.396Z,72.09
2023-04-19T23:19:32.832Z,72.38
2023-04-19T23:24:36.167Z,72.43
2023-04-19T23:29:37.684Z,72.66
2023-04-19T23:34:39.116Z,72.74
2023-04-19T23:39:40.676Z,72.75
2023-04-19T23:44:43.911Z,73.37
2023-04-19T23:49:45.664Z,74.83
2023-04-19T23:54:47.083Z,74.47
2023-04-19T23:59:48.538Z,74.68
